Time;durP1;ratioP1;P1;durP2;ratioP2;P2;SDS_P1;SDS_P2;PMS_P1;PMS_P2;Temp;Humidity;BMP_temperature;BMP_pressure;BME280_temperature;BME280_humidity;BME280_pressure;Samples;Min_cycle;Max_cycle;Signal;HPM_P1;HPM_P2
2022/01/04 00:02:22;;;;;;;3.13;1.42;;;9.90;69.40;;;8.26;75.31;95237.81;4919262;28;20039;-68
2022/01/04 00:04:48;;;;;;;3.65;1.40;;;9.80;69.50;;;8.23;74.92;95225.09;4972115;28;20066;-69
2022/01/04 00:07:13;;;;;;;2.38;1.02;;;9.80;69.50;;;8.19;75.82;95222.06;4934672;28;20039;-68
2022/01/04 00:09:41;;;;;;;3.90;1.20;;;9.70;70.10;;;8.16;75.76;95219.84;4933870;29;20126;-69
2022/01/04 00:14:54;;;;;;;3.70;1.45;;;9.60;70.90;;;8.09;75.98;95219.00;4947154;28;20540;-69
2022/01/04 00:17:20;;;;;;;3.80;1.70;;;9.60;71.20;;;8.09;76.67;95219.00;4939242;28;20130;-68
2022/01/04 00:19:46;;;;;;;3.63;1.40;;;9.60;71.30;;;8.04;76.72;95202.25;4924601;29;20039;-69
2022/01/04 00:22:12;;;;;;;4.57;1.40;;;9.50;71.30;;;8.02;76.55;95199.03;4959573;28;20155;-68
2022/01/04 00:24:37;;;;;;;2.90;1.35;;;9.50;71.10;;;8.01;77.05;95194.78;4955554;28;20119;-69
2022/01/04 00:27:04;;;;;;;2.80;1.10;;;9.50;71.20;;;8.01;76.33;95190.34;4935493;28;20114;-68
2022/01/04 00:29:29;;;;;;;4.20;1.15;;;9.50;71.30;;;8.00;77.00;95188.75;4929423;28;20046;-68
2022/01/04 00:31:55;;;;;;;2.83;0.90;;;9.50;71.50;;;7.99;77.29;95185.31;4922587;29;20042;-69
2022/01/04 00:34:21;;;;;;;2.70;1.15;;;9.50;71.40;;;7.99;76.79;95177.47;4951700;28;20030;-69
2022/01/04 00:36:46;;;;;;;4.07;1.75;;;9.50;71.40;;;7.99;77.44;95180.06;4931304;29;20036;-69
2022/01/04 00:39:12;;;;;;;2.20;1.00;;;9.50;71.40;;;7.98;76.67;95170.59;4934702;28;20533;-68
2022/01/04 00:41:38;;;;;;;3.63;1.23;;;9.40;71.70;;;7.99;77.03;95166.97;4951895;28;20027;-69
2022/01/04 00:44:04;;;;;;;2.80;1.10;;;9.50;71.50;;;8.01;77.20;95165.97;4943061;28;20070;-69
2022/01/04 00:46:30;;;;;;;2.45;0.90;;;9.50;71.10;;;8.03;76.66;95158.72;4932142;28;20039;-68
2022/01/04 00:49:11;;;;;;;4.50;1.20;;;9.50;71.00;;;8.05;76.58;95154.09;4922202;28;20050;-69
2022/01/04 00:52:00;;;;;;;3.15;1.08;;;9.60;70.90;;;8.07;77.55;95142.44;4957210;28;20507;-69
2022/01/04 00:54:26;;;;;;;2.17;0.90;;;9.60;70.90;;;8.06;76.69;95134.78;4955099;28;20051;-68
2022/01/04 00:56:52;;;;;;;3.63;0.90;;;9.60;70.80;;;8.10;76.60;95138.59;4936196;28;20530;-69
2022/01/04 00:59:18;;;;;;;2.70;0.93;;;9.60;70.90;;;8.10;76.91;95126.31;4949783;28;20039;-69
2022/01/04 01:01:44;;;;;;;2.00;0.70;;;9.60;70.80;;;8.13;76.35;95125.13;4930433;28;20065;-69
2022/01/04 01:04:09;;;;;;;3.28;0.88;;;9.60;70.80;;;8.15;76.52;95123.13;4934072;29;20047;-68
2022/01/04 01:06:35;;;;;;;2.60;0.70;;;9.70;70.80;;;8.17;76.62;95123.75;4930700;29;20062;-68
2022/01/04 01:09:01;;;;;;;1.83;0.80;;;9.60;71.10;;;8.17;76.60;95116.69;4933112;28;20495;-68
2022/01/04 01:11:27;;;;;;;4.05;0.60;;;9.70;70.90;;;8.20;76.83;95125.97;4920788;29;20110;-68
2022/01/04 01:13:53;;;;;;;4.90;0.90;;;9.70;71.00;;;8.23;77.26;95128.19;4942121;28;20054;-68
2022/01/04 01:16:19;;;;;;;1.50;0.80;;;9.70;71.20;;;8.25;77.22;95126.97;4925630;29;20475;-68
2022/01/04 01:18:45;;;;;;;3.42;0.63;;;9.80;71.40;;;8.25;77.49;95118.31;4938079;28;20110;-69
2022/01/04 01:21:11;;;;;;;3.83;0.98;;;9.70;71.10;;;8.27;77.49;95111.06;4930121;28;20043;-68
2022/01/04 01:23:37;;;;;;;2.63;0.80;;;9.80;71.50;;;8.27;77.39;95105.81;4939691;28;20074;-69
2022/01/04 01:26:04;;;;;;;1.95;0.70;;;9.80;71.50;;;8.29;77.20;95114.28;4916815;29;20031;-69
2022/01/04 01:28:30;;;;;;;3.28;0.98;;;9.80;71.70;;;8.30;77.54;95108.84;4955565;28;20123;-69
2022/01/04 01:30:56;;;;;;;2.08;0.80;;;9.80;71.80;;;8.31;77.59;95101.78;4949289;28;20066;-69
2022/01/04 01:33:23;;;;;;;2.80;0.80;;;9.80;71.90;;;8.32;77.99;95103.41;4921733;28;20131;-69
2022/01/04 01:35:49;;;;;;;2.00;0.60;;;9.80;72.10;;;8.34;78.06;95101.41;4937545;28;20038;-69
2022/01/04 01:38:16;;;;;;;2.40;0.80;;;9.90;72.00;;;8.35;78.05;95095.16;4930976;28;20857;-69
2022/01/04 01:40:43;;;;;;;1.13;0.50;;;9.90;72.00;;;8.36;78.21;95075.81;4932637;29;20114;-69
2022/01/04 01:43:09;;;;;;;3.42;0.80;;;9.90;72.00;;;8.36;78.30;95075.00;4933312;28;20063;-68
2022/01/04 01:45:35;;;;;;;1.88;0.68;;;9.90;72.40;;;8.37;78.72;95074.00;4938098;29;20066;-69
2022/01/04 01:48:01;;;;;;;1.58;0.60;;;9.90;71.90;;;8.37;78.74;95069.56;4956884;28;20337;-69
2022/01/04 01:50:26;;;;;;;2.13;0.70;;;9.90;72.20;;;8.39;79.01;95064.16;4955643;28;20038;-69
2022/01/04 01:52:52;;;;;;;1.65;0.70;;;9.90;72.20;;;8.40;78.06;95058.72;4933410;28;20054;-69
2022/01/04 01:55:19;;;;;;;1.30;0.50;;;9.90;72.40;;;8.40;78.82;95052.66;4942387;28;20035;-68
2022/01/04 01:57:46;;;;;;;1.15;0.60;;;10.00;72.30;;;8.41;78.96;95049.84;4926946;29;20036;-68
2022/01/04 02:00:13;;;;;;;5.30;1.00;;;10.00;72.30;;;8.42;78.95;95040.16;4962002;23;20058;-68
2022/01/04 02:02:39;;;;;;;0.85;0.55;;;10.10;72.40;;;8.41;79.05;95033.31;4931881;29;20202;-68
2022/01/04 02:05:05;;;;;;;1.80;0.82;;;10.00;71.90;;;8.41;79.06;95030.69;4943056;29;20518;-68
2022/01/04 02:07:32;;;;;;;2.30;0.65;;;10.00;71.90;;;8.42;78.77;95029.69;4948587;28;20046;-68
2022/01/04 02:10:07;;;;;;;2.58;0.77;;;10.00;72.50;;;8.42;79.09;95021.81;4910465;29;20534;-68
2022/01/04 02:12:46;;;;;;;2.75;0.60;;;10.00;72.40;;;8.43;78.83;95019.00;4917283;29;20067;-69
2022/01/04 02:15:16;;;;;;;1.13;0.60;;;10.00;72.10;;;8.42;78.90;95009.53;4915042;29;20036;-69
2022/01/04 02:17:42;;;;;;;2.67;0.60;;;10.00;72.40;;;8.43;78.90;95012.97;4912513;29;20067;-68
2022/01/04 02:20:08;;;;;;;1.58;0.60;;;9.90;72.10;;;8.41;78.89;95002.69;4897198;29;20507;-68
2022/01/04 02:22:34;;;;;;;2.47;0.70;;;10.00;71.70;;;8.43;78.66;94998.03;4899668;29;20472;-68
2022/01/04 02:25:00;;;;;;;1.63;0.75;;;10.00;71.30;;;8.43;78.00;94984.94;4911784;29;20100;-68
2022/01/04 02:27:26;;;;;;;2.10;0.60;;;10.00;71.50;;;8.44;78.24;94989.16;4907639;28;20515;-69
2022/01/04 02:29:51;;;;;;;3.13;0.77;;;10.00;70.80;;;8.45;77.60;94982.13;4916276;29;20058;-69
2022/01/04 02:32:17;;;;;;;2.20;0.60;;;10.00;70.70;;;8.49;78.17;94972.84;4934074;29;20091;-68
2022/01/04 02:34:48;;;;;;;2.72;0.80;;;10.10;70.50;;;8.48;77.07;94969.41;4915544;29;20094;-68
2022/01/04 02:37:17;;;;;;;2.95;1.00;;;10.10;70.20;;;8.52;77.78;94964.56;4899519;29;20032;-68
2022/01/04 02:39:43;;;;;;;4.85;0.90;;;10.10;70.70;;;8.51;77.33;94958.50;4930216;29;20104;-68
2022/01/04 02:42:09;;;;;;;1.60;0.50;;;10.10;70.80;;;8.53;77.20;94947.81;4914661;29;20461;-68
2022/01/04 02:44:34;;;;;;;2.88;0.70;;;10.10;69.80;;;8.55;76.67;94946.59;4914895;29;20036;-69
2022/01/04 02:47:00;;;;;;;2.47;0.70;;;10.10;69.30;;;8.56;76.97;94942.16;4899769;29;20411;-68
2022/01/04 02:49:26;;;;;;;3.17;0.70;;;10.20;69.70;;;8.59;76.94;94942.56;4915116;29;20035;-68
2022/01/04 02:51:52;;;;;;;1.65;0.70;;;10.20;69.60;;;8.62;77.26;94930.09;4940475;29;20098;-69
2022/01/04 02:54:18;;;;;;;4.40;0.70;;;10.30;69.50;;;8.64;76.81;94928.88;4916348;29;20036;-68
2022/01/04 02:56:43;;;;;;;2.50;0.70;;;10.30;68.50;;;8.65;76.27;94913.94;4909528;29;20595;-68
2022/01/04 02:59:09;;;;;;;1.60;0.50;;;10.30;68.60;;;8.63;76.31;94901.06;4913797;29;20231;-68
2022/01/04 03:01:35;;;;;;;2.05;0.60;;;10.30;68.50;;;8.64;76.19;94902.66;4915761;29;20658;-69
2022/01/04 03:04:01;;;;;;;2.03;0.70;;;10.20;68.50;;;8.65;75.63;94898.22;4913283;29;20138;-68
2022/01/04 03:06:26;;;;;;;3.67;0.80;;;10.20;68.60;;;8.67;75.33;94896.19;4932914;29;20039;-68
2022/01/04 03:08:54;;;;;;;1.88;0.60;;;10.30;68.60;;;8.70;75.44;94906.25;4930587;29;20110;-68
2022/01/04 03:11:19;;;;;;;1.75;0.70;;;10.30;68.50;;;8.69;75.19;94909.91;4913292;28;20039;-68
2022/01/04 03:13:45;;;;;;;3.00;0.70;;;10.30;68.20;;;8.69;75.07;94896.78;4910449;29;20531;-68
2022/01/04 03:16:11;;;;;;;2.53;0.70;;;10.30;68.20;;;8.71;76.13;94892.16;4930036;29;20040;-68
2022/01/04 03:19:02;;;;;;;2.28;0.63;;;10.40;68.40;;;8.71;76.12;94882.47;4929598;29;20035;-69
2022/01/04 03:21:22;;;;;;;2.33;1.10;;;10.40;68.40;;;8.74;75.28;94878.63;4923713;29;20065;-68
2022/01/04 03:23:48;;;;;;;3.80;0.90;;;10.50;68.70;;;8.74;75.75;94873.38;4930276;29;20475;-68
2022/01/04 03:26:14;;;;;;;2.58;1.40;;;10.40;68.30;;;8.74;76.22;94876.81;4898221;29;20562;-68
2022/01/04 03:28:40;;;;;;;2.80;1.42;;;10.50;68.50;;;8.75;77.00;94854.00;4898545;29;20059;-69
2022/01/04 03:31:07;;;;;;;10.38;6.72;;;10.50;70.00;;;8.76;76.59;94847.75;4900345;29;20416;-69
2022/01/04 03:33:34;;;;;;;10.32;6.38;;;10.50;70.40;;;8.75;77.02;94836.47;4913752;29;20043;-69
2022/01/04 03:36:02;;;;;;;6.57;4.22;;;10.50;69.40;;;8.75;76.98;94836.47;4914137;29;20043;-69
2022/01/04 03:38:28;;;;;;;3.90;1.27;;;10.50;69.10;;;8.77;76.53;94831.00;4915933;29;20119;-69
2022/01/04 03:40:54;;;;;;;2.08;1.00;;;10.40;68.80;;;8.76;75.72;94834.66;4924004;29;20063;-67
2022/01/04 03:43:21;;;;;;;1.58;0.70;;;10.40;68.90;;;8.74;75.81;94826.19;4910352;29;20547;-67
2022/01/04 03:45:47;;;;;;;1.52;0.98;;;10.40;68.80;;;8.73;75.85;94807.03;4929361;29;20554;-67
2022/01/04 03:48:13;;;;;;;3.63;0.98;;;10.40;68.60;;;8.71;76.00;94797.78;4913632;29;20036;-68
2022/01/04 03:50:40;;;;;;;2.72;0.90;;;10.40;68.60;;;8.72;75.59;94804.63;4930113;29;20079;-67
2022/01/04 03:53:06;;;;;;;2.15;0.75;;;10.40;69.00;;;8.70;75.98;94790.94;4930397;29;20040;-68
2022/01/04 03:55:31;;;;;;;2.35;0.70;;;10.30;68.00;;;8.70;74.99;94790.94;4915228;29;20062;-67
2022/01/04 03:57:57;;;;;;;1.50;0.70;;;10.30;68.70;;;8.70;75.45;94781.25;4928634;29;20480;-68
2022/01/04 04:00:23;;;;;;;2.10;0.80;;;10.20;68.90;;;8.72;75.56;94778.41;4913797;29;20404;-68
2022/01/04 04:02:48;;;;;;;1.95;0.77;;;10.30;69.30;;;8.72;76.68;94767.94;4897171;29;20063;-67
2022/01/04 04:05:15;;;;;;;1.27;0.60;;;10.30;69.50;;;8.71;76.21;94761.06;4928034;29;20459;-67
2022/01/04 04:07:41;;;;;;;1.15;0.60;;;10.20;69.40;;;8.68;75.94;94757.06;4893966;29;20074;-67
2022/01/04 04:10:08;;;;;;;1.45;0.50;;;10.30;69.30;;;8.65;76.04;94746.19;4919269;29;20064;-67
2022/01/04 04:12:34;;;;;;;1.02;0.50;;;10.30;69.70;;;8.68;75.83;94751.00;4927535;29;20047;-67
2022/01/04 04:15:04;;;;;;;0.63;0.43;;;10.30;69.70;;;8.67;76.27;94750.22;4911763;29;20047;-67
2022/01/04 04:17:30;;;;;;;1.48;0.70;;;10.30;70.00;;;8.67;76.23;94738.94;4928056;28;20505;-68
2022/01/04 04:19:56;;;;;;;2.38;0.63;;;10.30;69.70;;;8.66;76.83;94740.75;4928622;29;20032;-68
2022/01/04 04:22:22;;;;;;;1.45;0.52;;;10.30;69.80;;;8.67;76.83;94738.94;4928160;29;20055;-67
2022/01/04 04:24:47;;;;;;;3.65;0.80;;;10.30;70.20;;;8.66;76.31;94729.47;4912420;29;20039;-68
2022/01/04 04:27:14;;;;;;;2.40;0.77;;;10.30;70.20;;;8.66;76.77;94737.31;4913249;29;20032;-68
2022/01/04 04:29:39;;;;;;;2.97;0.73;;;10.30;70.30;;;8.65;76.84;94735.72;4912951;29;20566;-68
2022/01/04 04:32:06;;;;;;;1.55;0.60;;;10.20;70.50;;;8.63;76.99;94728.06;4915683;29;20044;-68
2022/01/04 04:34:32;;;;;;;0.95;0.50;;;10.20;71.00;;;8.62;77.63;94726.47;4928966;29;20042;-67
2022/01/04 04:36:58;;;;;;;0.90;0.60;;;10.20;71.80;;;8.58;78.49;94715.56;4913161;29;20083;-68
2022/01/04 04:39:24;;;;;;;2.35;1.08;;;10.20;72.00;;;8.58;78.73;94710.31;4913108;29;20067;-68
2022/01/04 04:41:49;;;;;;;1.85;0.90;;;10.20;72.20;;;8.59;78.17;94706.69;4923486;29;20131;-68
2022/01/04 04:44:16;;;;;;;1.65;0.65;;;10.20;71.90;;;8.57;79.34;94708.72;4912950;29;20044;-67
2022/01/04 04:46:41;;;;;;;1.80;0.70;;;10.20;72.10;;;8.57;78.61;94692.19;4925672;29;20058;-68
2022/01/04 04:49:07;;;;;;;2.25;0.70;;;10.20;71.90;;;8.57;79.27;94698.22;4924275;29;20193;-68
2022/01/04 04:51:33;;;;;;;1.85;0.80;;;10.20;72.10;;;8.55;79.41;94689.78;4905041;29;20500;-67
2022/01/04 04:53:59;;;;;;;1.70;0.60;;;10.10;72.00;;;8.54;79.15;94693.41;4896963;29;20039;-68
2022/01/04 04:56:24;;;;;;;0.73;0.43;;;10.20;72.40;;;8.55;78.87;94684.53;4913848;29;20520;-68
2022/01/04 04:58:50;;;;;;;1.20;0.45;;;10.10;72.20;;;8.53;79.21;94683.94;4929422;28;20062;-67
2022/01/04 05:01:16;;;;;;;0.63;0.50;;;10.10;72.30;;;8.54;79.13;94684.75;4944367;28;20043;-68
2022/01/04 05:03:42;;;;;;;1.77;0.65;;;10.20;72.20;;;8.55;79.21;94679.28;4911594;29;20032;-68
2022/01/04 05:06:07;;;;;;;1.65;0.60;;;10.20;72.50;;;8.57;79.70;94685.13;4893887;29;20036;-68
2022/01/04 05:08:33;;;;;;;1.77;0.90;;;10.30;72.40;;;8.57;80.29;94672.03;4924933;29;20766;-68
2022/01/04 05:10:59;;;;;;;0.73;0.40;;;10.30;72.70;;;8.58;80.23;94671.00;4926559;29;20043;-68
2022/01/04 05:13:25;;;;;;;1.02;0.68;;;10.30;73.20;;;8.58;80.56;94671.00;4897110;28;20039;-68
2022/01/04 05:15:50;;;;;;;2.08;0.60;;;10.30;73.10;;;8.57;80.09;94672.03;4922377;29;20091;-68
2022/01/04 05:18:16;;;;;;;1.42;0.63;;;10.30;72.80;;;8.57;79.88;94677.25;4910121;29;20463;-68
2022/01/04 05:20:42;;;;;;;1.30;0.50;;;10.20;72.60;;;8.56;79.71;94664.38;4927992;29;20035;-68
2022/01/04 05:23:08;;;;;;;2.90;0.82;;;10.20;72.40;;;8.55;80.34;94668.81;4912130;29;20043;-68
2022/01/04 05:25:33;;;;;;;1.13;0.60;;;10.20;72.60;;;8.56;80.52;94673.03;4895197;29;20039;-68
2022/01/04 05:27:59;;;;;;;1.38;0.50;;;10.20;72.60;;;8.53;79.68;94673.47;4925441;29;20063;-68
2022/01/04 05:30:25;;;;;;;1.60;0.65;;;10.20;72.40;;;8.53;80.68;94659.56;4912452;29;20035;-68
2022/01/04 05:32:50;;;;;;;1.60;0.68;;;10.30;72.80;;;8.57;80.15;94676.47;4928029;29;20035;-68
2022/01/04 05:35:16;;;;;;;1.88;1.02;;;10.20;73.30;;;8.56;81.37;94665.19;4929113;28;20042;-68
2022/01/04 05:37:42;;;;;;;2.22;1.02;;;10.30;73.40;;;8.53;80.50;94668.22;4927705;29;20036;-68
2022/01/04 05:40:08;;;;;;;2.17;0.80;;;10.20;73.80;;;8.55;81.70;94668.81;4945262;28;20031;-68
2022/01/04 05:42:34;;;;;;;2.60;1.30;;;10.20;74.20;;;8.53;82.22;94670.84;4929007;29;20040;-68
2022/01/04 05:45:00;;;;;;;12.95;8.30;;;10.30;75.40;;;8.52;83.12;94656.13;4915527;29;20043;-68
2022/01/04 05:47:26;;;;;;;18.80;15.57;;;10.30;76.00;;;8.53;83.83;94657.75;4928991;28;20110;-68
2022/01/04 05:49:52;;;;;;;4.55;1.95;;;10.30;76.70;;;8.49;83.51;94653.94;4896630;29;20531;-68
2022/01/04 05:52:18;;;;;;;2.83;1.02;;;10.20;75.80;;;8.47;83.52;94655.16;4899080;29;20031;-67
2022/01/04 05:54:45;;;;;;;2.05;0.98;;;10.20;75.80;;;8.44;84.34;94656.41;4900362;29;20111;-68
2022/01/04 05:57:10;;;;;;;3.08;1.38;;;10.10;76.40;;;8.37;84.92;94634.66;4929246;29;20035;-68
2022/01/04 05:59:36;;;;;;;3.22;1.02;;;10.00;77.10;;;8.36;85.02;94643.53;4894113;29;20042;-68
2022/01/04 06:02:02;;;;;;;3.78;1.00;;;10.00;77.40;;;8.33;85.88;94643.94;4914939;29;20411;-69
2022/01/04 06:04:28;;;;;;;3.28;1.10;;;10.00;77.80;;;8.32;85.77;94652.78;4925359;29;20071;-72
2022/01/04 06:06:54;;;;;;;4.88;1.35;;;10.00;77.60;;;8.31;85.95;94640.72;4912799;29;20096;-72
2022/01/04 06:09:28;;;;;;;4.90;1.33;;;9.90;77.90;;;8.26;85.55;94637.94;4926607;29;20083;-69
2022/01/04 06:17:05;;;;;;;2.17;0.93;;;9.60;78.00;;;8.11;85.75;94638.19;4931674;29;20127;-70
2022/01/04 06:19:31;;;;;;;3.85;1.20;;;9.60;77.20;;;8.08;85.16;94633.38;4901763;29;20043;-71
2022/01/04 06:21:56;;;;;;;4.63;1.10;;;9.60;77.40;;;8.05;85.77;94635.63;4920292;29;20043;-70
2022/01/04 06:24:22;;;;;;;2.20;1.05;;;9.50;77.60;;;7.99;85.46;94638.06;4929958;29;20032;-71
2022/01/04 06:26:48;;;;;;;2.28;1.00;;;9.60;77.20;;;7.94;84.89;94635.28;4936050;29;20039;-72
2022/01/04 06:29:14;;;;;;;1.92;1.02;;;9.40;76.60;;;7.94;84.98;94635.28;4930917;29;20150;-71
2022/01/04 06:31:40;;;;;;;2.22;0.90;;;9.50;76.60;;;7.92;84.76;94633.84;4932435;29;20036;-71
2022/01/04 06:34:06;;;;;;;2.17;1.20;;;9.40;76.60;;;7.90;85.41;94626.22;4916069;29;20139;-70
2022/01/04 06:36:32;;;;;;;2.53;1.10;;;9.50;77.30;;;7.89;85.24;94626.41;4916582;29;20114;-71
2022/01/04 06:38:57;;;;;;;2.85;1.10;;;9.40;77.20;;;7.86;84.77;94622.41;4924702;29;20507;-71
2022/01/04 06:41:23;;;;;;;2.55;0.90;;;9.30;75.90;;;7.86;84.60;94613.75;4932864;28;20440;-71
2022/01/04 06:43:49;;;;;;;4.15;1.55;;;9.40;76.80;;;7.83;85.50;94604.50;4916236;29;20027;-71
2022/01/04 06:46:15;;;;;;;2.88;1.20;;;9.40;77.60;;;7.82;85.59;94608.13;4913238;29;20024;-72
2022/01/04 06:48:41;;;;;;;8.25;1.50;;;9.30;78.00;;;7.82;85.87;94605.53;4922377;29;20586;-72
2022/01/04 06:51:07;;;;;;;3.45;1.40;;;9.40;78.10;;;7.78;86.33;94593.88;4932756;29;20035;-72
2022/01/04 06:53:33;;;;;;;2.90;1.17;;;9.40;78.20;;;7.79;86.13;94590.22;4922331;29;20043;-72
2022/01/04 06:55:59;;;;;;;3.30;1.25;;;9.40;77.90;;;7.79;86.59;94599.91;4923916;29;20036;-71
2022/01/04 06:58:25;;;;;;;2.80;1.30;;;9.40;78.00;;;7.76;86.93;94588.03;4912439;29;20032;-72
2022/01/04 07:00:50;;;;;;;2.28;1.20;;;9.30;78.30;;;7.73;86.22;94585.03;4940092;29;20044;-66
2022/01/04 07:03:16;;;;;;;3.67;1.10;;;9.30;78.30;;;7.71;86.68;94582.63;4931302;28;20584;-71
2022/01/04 07:05:42;;;;;;;2.25;1.10;;;9.20;78.50;;;7.69;86.60;94584.63;4930934;29;20034;-70
2022/01/04 07:08:08;;;;;;;2.50;1.20;;;9.10;78.20;;;7.70;86.57;94586.25;4916373;29;20039;-68
2022/01/04 07:10:33;;;;;;;1.92;0.98;;;9.20;78.20;;;7.66;86.28;94585.03;4932311;29;20028;-70
2022/01/04 07:12:59;;;;;;;4.30;1.15;;;9.10;78.50;;;7.64;86.67;94592.31;4912841;29;20111;-68
2022/01/04 07:15:25;;;;;;;2.67;1.20;;;9.10;78.10;;;7.62;86.51;94582.03;4885816;29;20042;-68
2022/01/04 07:17:51;;;;;;;4.18;1.10;;;9.10;78.70;;;7.61;86.40;94577.03;4904729;29;20444;-69
2022/01/04 07:20:16;;;;;;;2.88;0.90;;;9.10;78.40;;;7.62;86.71;94573.38;4932158;29;20507;-68
2022/01/04 07:22:42;;;;;;;3.30;1.13;;;9.10;78.90;;;7.61;86.49;94571.78;4932456;28;20051;-67
2022/01/04 07:25:08;;;;;;;2.08;1.08;;;9.10;78.70;;;7.61;86.67;94571.78;4915796;29;20075;-67
2022/01/04 07:27:34;;;;;;;2.33;1.20;;;9.10;79.10;;;7.61;87.70;94562.13;4931832;28;20090;-67
2022/01/04 07:30:00;;;;;;;3.63;1.20;;;9.10;79.60;;;7.63;87.69;94554.06;4931247;29;20039;-67
2022/01/04 07:32:26;;;;;;;3.47;1.30;;;9.10;80.10;;;7.64;88.09;94540.78;4928178;29;20478;-65
2022/01/04 07:34:51;;;;;;;2.63;1.00;;;9.10;80.20;;;7.68;88.65;94549.00;4941763;28;20059;-65
2022/01/04 07:37:17;;;;;;;3.63;1.30;;;9.20;80.60;;;7.70;88.82;94543.59;4931477;28;20182;-68
2022/01/04 07:39:43;;;;;;;2.88;1.17;;;9.20;80.60;;;7.71;89.26;94540.75;4931040;29;20039;-68
2022/01/04 07:42:09;;;;;;;2.95;1.05;;;9.20;80.80;;;7.74;89.69;94535.09;4912380;29;20040;-68
2022/01/04 07:44:34;;;;;;;2.75;1.13;;;9.20;80.60;;;7.76;89.72;94527.84;4912550;29;20043;-67
2022/01/04 07:47:00;;;;;;;2.50;1.00;;;9.30;80.70;;;7.80;89.72;94526.41;4899945;29;20509;-67
2022/01/04 07:49:26;;;;;;;2.15;0.80;;;9.30;80.80;;;7.83;90.06;94527.78;4915114;28;20036;-68
2022/01/04 07:51:52;;;;;;;2.72;1.02;;;9.40;80.80;;;7.86;89.97;94520.31;4932452;29;20055;-68
2022/01/04 07:54:18;;;;;;;2.17;0.90;;;9.40;81.00;;;7.89;89.61;94517.28;4915418;29;20692;-69
2022/01/04 07:56:44;;;;;;;3.72;1.15;;;9.40;80.80;;;7.90;90.28;94512.84;4927702;29;20119;-68
2022/01/04 07:59:09;;;;;;;3.15;1.20;;;9.40;80.80;;;7.92;90.30;94514.25;4911873;29;20079;-68
2022/01/04 08:01:35;;;;;;;2.88;1.38;;;9.40;80.80;;;7.95;90.32;94499.94;4896827;29;20051;-67
2022/01/04 08:04:03;;;;;;;2.75;1.48;;;9.50;80.80;;;7.97;89.91;94493.47;4909756;29;20438;-68
2022/01/04 08:06:29;;;;;;;3.45;1.75;;;9.60;80.60;;;7.99;90.70;94496.69;4915029;29;20457;-65
2022/01/04 08:08:55;;;;;;;2.35;1.10;;;9.60;81.00;;;7.99;90.36;94485.41;4912242;29;20040;-65
2022/01/04 08:11:21;;;;;;;2.30;1.08;;;9.50;80.50;;;8.02;90.13;94489.41;4926075;29;20046;-66
2022/01/04 08:13:46;;;;;;;1.92;1.02;;;9.50;80.80;;;8.06;91.14;94474.88;4914996;29;20035;-66
2022/01/04 08:16:15;;;;;;;3.25;1.27;;;9.60;80.90;;;8.07;90.90;94471.25;4914558;29;20023;-65
2022/01/04 08:18:42;;;;;;;3.63;1.00;;;9.60;80.90;;;8.09;90.98;94463.97;4930904;29;20032;-67
2022/01/04 08:21:07;;;;;;;3.28;1.10;;;9.60;81.30;;;8.09;91.65;94462.16;4914969;29;20032;-67
2022/01/04 08:23:33;;;;;;;1.92;0.90;;;9.60;81.70;;;8.13;91.28;94452.88;4930878;28;20201;-64
2022/01/04 08:25:59;;;;;;;3.03;0.90;;;9.70;81.00;;;8.16;91.64;94449.03;4929852;29;20499;-65
2022/01/04 08:28:24;;;;;;;2.90;1.15;;;9.70;81.40;;;8.21;91.52;94455.22;4911679;29;20039;-67
2022/01/04 08:30:50;;;;;;;3.75;0.80;;;9.80;81.80;;;8.24;92.27;94440.91;4927815;29;20500;-66
2022/01/04 08:33:16;;;;;;;2.80;0.98;;;9.80;81.70;;;8.28;92.63;94442.88;4911454;29;20048;-65
2022/01/04 08:35:42;;;;;;;2.22;1.00;;;9.90;81.90;;;8.31;92.48;94446.88;4924365;29;20066;-67
2022/01/04 08:38:08;;;;;;;4.55;0.85;;;9.90;81.90;;;8.36;92.68;94438.41;4911778;29;20508;-67
2022/01/04 08:40:34;;;;;;;1.35;0.75;;;10.00;81.90;;;8.41;92.50;94426.28;4895944;29;20107;-65
2022/01/04 08:42:59;;;;;;;3.17;1.02;;;10.10;81.60;;;8.45;93.49;94416.97;4896987;29;20111;-66
2022/01/04 08:45:26;;;;;;;3.10;0.65;;;10.10;81.80;;;8.50;92.89;94419.72;4897857;29;20133;-66
2022/01/04 08:47:52;;;;;;;1.80;0.70;;;10.20;81.90;;;8.56;93.59;94418.06;4929175;29;20071;-65
2022/01/04 08:50:18;;;;;;;2.25;0.98;;;10.30;82.00;;;8.62;93.93;94417.19;4895085;29;20543;-68
2022/01/04 08:52:44;;;;;;;1.88;0.90;;;10.40;81.70;;;8.68;93.37;94405.84;4895824;29;20040;-67
2022/01/04 08:55:10;;;;;;;6.85;3.70;;;10.40;81.50;;;8.77;94.09;94403.72;4913699;29;20471;-69
2022/01/04 08:57:36;;;;;;;3.13;1.10;;;10.50;81.50;;;8.82;94.10;94388.13;4912643;28;20099;-68
2022/01/04 09:00:05;;;;;;;1.00;0.60;;;10.60;81.40;;;8.89;93.15;94376.56;4911161;29;20032;-69
2022/01/04 09:02:32;;;;;;;1.40;0.50;;;10.70;81.40;;;8.95;94.03;94372.25;4933625;29;20130;-67
2022/01/04 09:04:59;;;;;;;1.73;0.70;;;10.70;81.20;;;9.03;94.00;94368.50;4911149;29;20050;-68
2022/01/04 09:07:25;;;;;;;3.08;0.70;;;10.80;81.30;;;9.07;93.70;94362.63;4926436;28;20496;-67
2022/01/04 09:09:51;;;;;;;0.82;0.60;;;10.80;81.20;;;9.17;93.30;94368.13;4911528;29;20053;-70
2022/01/04 09:12:18;;;;;;;2.00;0.75;;;11.00;81.20;;;9.27;93.48;94361.53;4899204;29;20047;-70
2022/01/04 09:20:05;;;;;;;1.35;0.60;;;11.20;80.60;;;9.52;93.17;94370.88;4899086;29;20039;-68
2022/01/04 09:22:30;;;;;;;1.25;0.70;;;11.30;80.40;;;9.59;92.93;94370.78;4930445;29;20500;-69
2022/01/04 09:24:56;;;;;;;1.45;0.82;;;11.40;80.50;;;9.65;92.96;94364.63;4913963;29;20111;-69
2022/01/04 09:27:22;;;;;;;1.73;0.70;;;11.50;80.00;;;9.73;93.79;94366.09;4929206;29;20035;-70
2022/01/04 09:29:49;;;;;;;1.33;0.50;;;11.50;80.20;;;9.78;93.00;94358.38;4929627;29;20174;-70
2022/01/04 09:32:16;;;;;;;3.30;0.90;;;11.60;79.70;;;9.86;92.38;94358.03;4913922;29;20245;-71
2022/01/04 09:34:44;;;;;;;1.60;1.15;;;11.70;79.60;;;9.94;92.61;94359.50;4910424;29;20036;-70
2022/01/04 09:37:09;;;;;;;3.45;1.08;;;11.80;79.70;;;10.00;92.78;94358.63;4924471;29;20043;-70
2022/01/04 09:39:35;;;;;;;0.98;0.65;;;11.80;79.20;;;10.07;92.14;94346.16;4913637;28;20420;-68
2022/01/04 09:42:01;;;;;;;0.90;0.50;;;12.00;79.20;;;10.14;92.05;94341.59;4928895;29;20040;-68
2022/01/04 09:44:27;;;;;;;0.70;0.40;;;12.00;78.90;;;10.20;92.72;94345.94;4913945;29;20135;-68
2022/01/04 09:46:55;;;;;;;2.10;0.50;;;12.10;78.60;;;10.26;91.25;94350.31;4929610;29;20067;-69
2022/01/04 09:49:20;;;;;;;0.90;0.52;;;12.20;78.20;;;10.31;91.62;94347.78;4910482;29;20070;-69
2022/01/04 09:51:46;;;;;;;0.70;0.38;;;12.10;78.10;;;10.37;92.16;94340.81;4901536;29;20384;-67
2022/01/04 09:54:15;;;;;;;0.95;0.50;;;12.20;78.40;;;10.42;90.92;94333.84;4910183;29;20044;-67
2022/01/04 09:56:41;;;;;;;0.85;0.60;;;12.30;77.90;;;10.47;91.16;94332.34;4916752;29;20701;-67
2022/01/04 09:59:07;;;;;;;0.57;0.40;;;12.40;77.90;;;10.51;91.40;94315.09;4922999;29;20064;-72
2022/01/04 10:01:37;;;;;;;1.90;0.60;;;12.40;77.70;;;10.57;91.50;94324.66;4896024;29;20067;-69
2022/01/04 10:04:04;;;;;;;2.63;1.33;;;12.50;77.80;;;10.62;90.48;94311.63;4934713;29;20032;-69
2022/01/04 10:06:36;;;;;;;3.08;2.00;;;12.60;77.60;;;10.65;90.91;94303.28;4914051;29;20527;-68
2022/01/04 10:09:06;;;;;;;4.00;0.77;;;12.60;77.70;;;10.70;90.58;94300.75;4927709;29;20524;-68
2022/01/04 10:11:36;;;;;;;0.73;0.55;;;12.60;77.40;;;10.78;90.21;94294.31;4948659;28;20132;-69
2022/01/04 10:14:28;;;;;;;0.75;0.55;;;12.70;77.10;;;10.86;89.82;94299.19;4930597;29;20487;-68
2022/01/04 10:17:03;;;;;;;1.40;0.55;;;12.80;77.00;;;10.90;89.78;94297.72;4921804;29;20043;-69
2022/01/04 10:19:47;;;;;;;0.47;0.38;;;12.80;76.60;;;10.97;89.20;94293.91;4930028;29;20063;-69
2022/01/04 10:22:24;;;;;;;1.95;0.80;;;12.80;76.20;;;11.01;89.03;94279.25;4914353;29;20075;-69
2022/01/04 10:25:02;;;;;;;2.05;0.43;;;12.90;75.80;;;11.11;87.11;94288.38;4913366;29;20043;-69
2022/01/04 10:27:45;;;;;;;1.10;0.60;;;13.00;74.60;;;11.18;86.64;94284.53;4932106;29;20051;-69
2022/01/04 10:30:28;;;;;;;1.08;0.47;;;13.00;74.30;;;11.26;86.54;94280.72;4916414;29;20191;-68
2022/01/04 10:33:08;;;;;;;0.82;0.40;;;13.10;74.10;;;11.32;86.65;94282.44;4913643;29;20062;-69
2022/01/04 10:35:50;;;;;;;1.38;0.50;;;13.10;74.20;;;11.34;85.73;94272.44;4943582;29;20032;-69
2022/01/04 10:38:19;;;;;;;0.95;0.50;;;13.10;74.60;;;11.38;85.96;94268.31;4920005;29;20095;-69
2022/01/04 10:41:08;;;;;;;0.80;0.50;;;13.10;74.90;;;11.41;85.08;94270.44;4932863;29;20047;-69